createdAt,value
2023-01-31T00:01:40.059Z,3.80
2023-01-31T00:04:14.124Z,4.30
2023-01-31T00:06:50.930Z,3.90
2023-01-31T00:09:17.872Z,4.67
2023-01-31T00:11:44.514Z,4.33
2023-01-31T00:14:17.856Z,4.77
2023-01-31T00:16:44.543Z,3.87
2023-01-31T00:19:11.253Z,3.93
2023-01-31T00:21:41.652Z,3.93
2023-01-31T00:24:08.854Z,4.00
2023-01-31T00:26:36.172Z,4.40
2023-01-31T00:29:04.690Z,4.00
2023-01-31T00:31:33.644Z,4.87
2023-01-31T00:34:01.137Z,4.50
2023-01-31T00:36:30.946Z,4.10
2023-01-31T00:38:59.685Z,4.43
2023-01-31T00:41:29.903Z,3.87
2023-01-31T00:43:56.770Z,3.43
2023-01-31T00:46:24.117Z,4.07
2023-01-31T00:48:51.335Z,3.87
2023-01-31T00:51:19.078Z,5.17
2023-01-31T00:53:46.514Z,3.93
2023-01-31T00:56:16.613Z,3.63
2023-01-31T00:58:43.695Z,4.00
2023-01-31T01:01:14.539Z,4.33
2023-01-31T01:03:42.649Z,3.93
2023-01-31T01:06:10.852Z,5.00
2023-01-31T01:08:39.238Z,4.47
2023-01-31T01:11:10.432Z,4.73
2023-01-31T01:13:37.442Z,4.53
2023-01-31T01:16:10.080Z,3.60
2023-01-31T01:18:37.302Z,4.70
2023-01-31T01:21:13.032Z,3.93
2023-01-31T01:23:40.914Z,4.00
2023-01-31T01:26:14.742Z,4.23
2023-01-31T01:28:41.907Z,3.57
2023-01-31T01:31:11.037Z,3.97
2023-01-31T01:33:38.248Z,4.10
2023-01-31T01:36:07.446Z,4.37
2023-01-31T01:38:36.410Z,3.83
2023-01-31T01:41:04.678Z,4.33
2023-01-31T01:43:47.585Z,4.03
2023-01-31T01:46:29.518Z,4.30
2023-01-31T01:49:17.007Z,3.83
2023-01-31T01:51:45.344Z,4.27
2023-01-31T01:54:18.184Z,4.00
2023-01-31T01:56:49.060Z,3.43
2023-01-31T01:59:48.336Z,3.80
2023-01-31T02:02:15.599Z,3.77
2023-01-31T02:04:45.755Z,3.53
2023-01-31T02:07:13.329Z,3.43
2023-01-31T02:09:47.737Z,4.77
2023-01-31T02:12:14.564Z,3.07
2023-01-31T02:14:42.242Z,3.40
2023-01-31T02:17:14.007Z,4.20
2023-01-31T02:20:18.021Z,4.50
2023-01-31T02:22:59.667Z,3.83
2023-01-31T02:25:48.514Z,5.70
2023-01-31T02:28:37.237Z,3.53
2023-01-31T02:31:21.676Z,3.50
2023-01-31T02:34:39.101Z,3.37
2023-01-31T02:37:12.041Z,3.67
2023-01-31T02:40:07.651Z,3.67
2023-01-31T02:43:12.760Z,4.00
2023-01-31T02:46:05.116Z,3.77
2023-01-31T02:48:59.299Z,3.30
2023-01-31T02:51:38.693Z,3.80
2023-01-31T02:54:56.384Z,3.80
2023-01-31T02:57:23.597Z,3.53
2023-01-31T02:59:50.764Z,3.40
2023-01-31T03:02:18.192Z,3.57
2023-01-31T03:04:45.303Z,3.23
2023-01-31T03:07:26.476Z,3.17
2023-01-31T03:10:17.217Z,3.83
2023-01-31T03:13:02.371Z,3.23
2023-01-31T03:16:12.978Z,3.33
2023-01-31T03:18:51.971Z,3.40
2023-01-31T03:21:26.267Z,3.50
2023-01-31T03:23:54.472Z,3.37
2023-01-31T03:26:22.500Z,3.50
2023-01-31T03:28:55.020Z,3.57
2023-01-31T03:31:26.729Z,3.87
2023-01-31T03:34:05.282Z,3.77
2023-01-31T03:36:41.540Z,3.70
2023-01-31T03:39:20.134Z,4.33
2023-01-31T03:42:07.752Z,4.43
2023-01-31T03:44:47.087Z,4.63
2023-01-31T03:47:23.086Z,3.70
2023-01-31T03:49:51.693Z,4.03
2023-01-31T03:52:23.778Z,4.10
2023-01-31T03:55:14.787Z,4.50
2023-01-31T03:57:43.025Z,4.00
2023-01-31T04:00:15.438Z,4.60
2023-01-31T04:02:43.684Z,4.53
2023-01-31T04:05:20.110Z,4.20
2023-01-31T04:07:47.128Z,5.23
2023-01-31T04:10:17.555Z,5.03
2023-01-31T04:12:44.986Z,4.43
2023-01-31T04:15:12.543Z,4.33
2023-01-31T04:17:39.249Z,4.13
2023-01-31T04:20:07.169Z,4.80
2023-01-31T04:22:34.249Z,4.23
2023-01-31T04:25:01.986Z,4.10
2023-01-31T04:27:29.090Z,3.93
2023-01-31T04:29:55.751Z,4.53
2023-01-31T04:32:22.563Z,4.93
2023-01-31T04:34:49.707Z,4.77
2023-01-31T04:37:16.797Z,5.00
2023-01-31T04:39:43.898Z,4.60
2023-01-31T04:42:10.661Z,4.50
2023-01-31T04:44:37.372Z,4.93
2023-01-31T04:47:04.549Z,4.37
2023-01-31T04:49:31.733Z,3.97
2023-01-31T04:51:58.466Z,4.73
2023-01-31T04:54:25.558Z,4.23
2023-01-31T04:56:52.622Z,4.40
2023-01-31T04:59:19.724Z,4.13
2023-01-31T05:01:46.793Z,4.20
2023-01-31T05:04:13.897Z,4.50
2023-01-31T05:06:41.034Z,4.40
2023-01-31T05:09:08.233Z,4.43
2023-01-31T05:11:35.298Z,13.80
2023-01-31T05:14:02.041Z,16.00
2023-01-31T05:16:29.200Z,11.60
2023-01-31T05:18:56.363Z,9.13
2023-01-31T05:21:23.516Z,7.03
2023-01-31T05:23:50.242Z,5.27
2023-01-31T05:26:17.043Z,5.23
2023-01-31T05:28:44.154Z,4.60
2023-01-31T05:31:13.156Z,5.23
2023-01-31T05:33:40.344Z,4.70
2023-01-31T05:36:07.599Z,5.03
2023-01-31T05:38:34.690Z,5.33
2023-01-31T05:41:01.957Z,5.20
2023-01-31T05:43:29.073Z,5.30
2023-01-31T05:45:56.282Z,5.77
2023-01-31T05:48:23.352Z,5.53
2023-01-31T05:50:51.158Z,6.30
2023-01-31T05:53:18.946Z,6.30
2023-01-31T05:55:46.115Z,5.83
2023-01-31T05:58:13.290Z,7.13
2023-01-31T06:00:40.398Z,7.00
2023-01-31T06:03:07.602Z,6.97
2023-01-31T06:05:34.429Z,6.80
2023-01-31T06:08:01.599Z,5.53
2023-01-31T06:10:28.762Z,5.73
2023-01-31T06:12:55.884Z,6.20
2023-01-31T06:15:23.220Z,6.13
2023-01-31T06:17:50.380Z,5.73
2023-01-31T06:20:17.550Z,5.90
2023-01-31T06:22:44.635Z,5.53
2023-01-31T06:25:11.346Z,5.77
2023-01-31T06:27:38.521Z,5.87
2023-01-31T06:30:05.592Z,5.93
2023-01-31T06:32:33.027Z,5.40
2023-01-31T06:34:59.689Z,6.20
2023-01-31T06:37:26.790Z,6.20
2023-01-31T06:39:53.500Z,5.50
2023-01-31T06:42:20.655Z,5.70
2023-01-31T06:44:47.726Z,5.10
2023-01-31T06:47:14.740Z,5.70
2023-01-31T06:49:41.847Z,5.40
2023-01-31T06:52:08.976Z,6.10
2023-01-31T06:54:36.274Z,5.27
2023-01-31T06:57:03.373Z,5.17
2023-01-31T06:59:30.477Z,5.13
2023-01-31T07:01:57.312Z,5.40
2023-01-31T07:04:24.619Z,4.90
2023-01-31T07:06:51.524Z,4.40
2023-01-31T07:09:18.642Z,4.70
2023-01-31T07:11:45.402Z,4.33
2023-01-31T07:14:12.499Z,5.23
2023-01-31T07:16:39.243Z,4.67
2023-01-31T07:19:06.393Z,4.57
2023-01-31T07:21:35.952Z,4.40
2023-01-31T07:24:03.753Z,4.63
2023-01-31T07:26:31.208Z,4.40
2023-01-31T07:28:58.576Z,4.30
2023-01-31T07:31:25.724Z,4.83
2023-01-31T07:33:52.769Z,4.50
2023-01-31T07:36:24.434Z,5.23
2023-01-31T07:38:53.563Z,5.03
2023-01-31T07:41:20.344Z,4.67
2023-01-31T07:43:47.069Z,3.97
2023-01-31T07:46:14.264Z,4.00
2023-01-31T07:48:41.195Z,4.40
2023-01-31T07:51:08.381Z,4.00
2023-01-31T07:53:41.906Z,4.27
2023-01-31T07:56:11.858Z,3.77
2023-01-31T07:58:39.763Z,3.93
2023-01-31T08:01:25.642Z,4.20
2023-01-31T08:03:52.786Z,4.00
2023-01-31T08:06:19.760Z,3.60
2023-01-31T08:08:47.556Z,4.00
2023-01-31T08:11:14.476Z,3.80
2023-01-31T08:13:41.558Z,3.47
2023-01-31T08:16:09.425Z,3.70
2023-01-31T08:18:37.030Z,3.40
2023-01-31T08:21:04.312Z,4.07
2023-01-31T08:23:32.066Z,3.93
2023-01-31T08:26:17.290Z,3.57
2023-01-31T08:28:45.013Z,4.13
2023-01-31T08:31:15.879Z,3.73
2023-01-31T08:33:43.457Z,3.77
2023-01-31T08:36:17.152Z,3.70
2023-01-31T08:38:44.913Z,3.43
2023-01-31T08:41:12.405Z,3.80
2023-01-31T08:43:54.246Z,3.90
2023-01-31T08:46:27.509Z,4.17
2023-01-31T08:48:55.022Z,3.80
2023-01-31T08:51:22.779Z,3.33
2023-01-31T08:53:50.123Z,4.00
2023-01-31T08:56:17.295Z,3.30
2023-01-31T08:58:45.465Z,3.30
2023-01-31T09:01:14.987Z,3.83
2023-01-31T09:03:44.691Z,3.40
2023-01-31T09:06:14.823Z,4.20
2023-01-31T09:08:41.972Z,4.23
2023-01-31T09:11:08.766Z,3.50
2023-01-31T09:13:35.921Z,3.53
2023-01-31T09:16:09.230Z,3.57
2023-01-31T09:18:36.931Z,4.07
2023-01-31T09:21:05.176Z,3.70
2023-01-31T09:23:32.370Z,4.20
2023-01-31T09:25:59.114Z,4.20
2023-01-31T09:28:26.584Z,3.73
2023-01-31T09:30:53.713Z,3.60
2023-01-31T09:33:21.157Z,4.20
2023-01-31T09:36:01.963Z,3.93
2023-01-31T09:38:29.586Z,3.43
2023-01-31T09:40:59.669Z,3.97
2023-01-31T09:43:28.993Z,3.97
2023-01-31T09:46:00.176Z,3.67
2023-01-31T09:48:34.794Z,3.60
2023-01-31T09:51:02.413Z,3.90
2023-01-31T09:53:31.504Z,3.80
2023-01-31T09:56:15.605Z,4.07
2023-01-31T09:58:48.461Z,4.03
2023-01-31T10:01:39.119Z,4.03
2023-01-31T10:04:23.174Z,4.07
2023-01-31T10:06:55.881Z,3.80
2023-01-31T10:09:33.037Z,4.10
2023-01-31T10:12:06.867Z,3.97
2023-01-31T10:14:50.189Z,4.43
2023-01-31T10:17:29.161Z,4.63
2023-01-31T10:20:08.661Z,4.47
2023-01-31T10:22:43.277Z,4.93
2023-01-31T10:25:26.972Z,4.23
2023-01-31T10:28:06.169Z,4.20
2023-01-31T10:30:38.845Z,4.17
2023-01-31T10:33:15.506Z,3.53
2023-01-31T10:35:43.911Z,4.63
2023-01-31T10:38:13.842Z,4.97
2023-01-31T10:40:44.394Z,4.10
2023-01-31T10:43:11.462Z,4.00
2023-01-31T10:45:38.584Z,4.43
2023-01-31T10:48:16.454Z,4.10
2023-01-31T10:51:24.369Z,3.93
2023-01-31T10:54:06.505Z,4.70
2023-01-31T10:56:38.216Z,4.80
2023-01-31T10:59:08.105Z,4.57
2023-01-31T11:01:36.167Z,4.30
2023-01-31T11:04:10.962Z,4.00
2023-01-31T11:06:37.650Z,3.77
2023-01-31T11:09:04.765Z,4.43
2023-01-31T11:11:31.457Z,3.97
2023-01-31T11:14:00.807Z,4.00
2023-01-31T11:16:31.079Z,3.30
2023-01-31T11:18:59.504Z,3.80
2023-01-31T11:21:33.739Z,4.03
2023-01-31T11:24:05.206Z,4.20
2023-01-31T11:26:33.883Z,3.77
2023-01-31T11:29:02.302Z,3.73
2023-01-31T11:31:31.872Z,3.83
2023-01-31T11:34:00.825Z,4.40
2023-01-31T11:36:32.342Z,3.47
2023-01-31T11:38:59.052Z,3.80
2023-01-31T11:41:35.935Z,3.77
2023-01-31T11:44:17.409Z,3.77
2023-01-31T11:46:59.922Z,3.67
2023-01-31T11:49:35.443Z,3.60
2023-01-31T11:52:17.042Z,3.83
2023-01-31T11:54:49.085Z,3.60
2023-01-31T11:57:21.430Z,3.43
2023-01-31T11:59:50.880Z,3.87
2023-01-31T12:02:27.325Z,3.53
2023-01-31T12:04:54.903Z,3.60
2023-01-31T12:07:23.566Z,3.70
2023-01-31T12:09:52.609Z,3.23
2023-01-31T12:12:22.310Z,3.40
2023-01-31T12:14:49.040Z,3.20
2023-01-31T12:17:18.004Z,3.57
2023-01-31T12:19:59.297Z,3.00
2023-01-31T12:22:36.915Z,3.83
2023-01-31T12:25:03.985Z,2.90
2023-01-31T12:27:43.611Z,3.17
2023-01-31T12:30:16.751Z,3.40
2023-01-31T12:32:43.842Z,2.97
2023-01-31T12:35:34.992Z,3.70
2023-01-31T12:38:22.866Z,3.43
2023-01-31T12:41:01.805Z,3.87
2023-01-31T12:43:47.311Z,4.03
2023-01-31T12:46:20.414Z,3.60
2023-01-31T12:49:10.585Z,3.00
2023-01-31T12:51:50.151Z,3.13
2023-01-31T12:54:32.893Z,3.00
2023-01-31T12:57:02.694Z,3.57
2023-01-31T12:59:29.801Z,3.27
2023-01-31T13:02:03.319Z,3.40
2023-01-31T13:04:49.113Z,3.07
2023-01-31T13:07:29.481Z,5.90
2023-01-31T13:09:58.419Z,4.43
2023-01-31T13:12:27.978Z,3.43
2023-01-31T13:15:09.135Z,3.40
2023-01-31T13:17:40.644Z,3.10
2023-01-31T13:20:26.767Z,3.57
2023-01-31T13:22:57.572Z,3.60
2023-01-31T13:25:36.693Z,3.77
2023-01-31T13:28:26.732Z,3.80
2023-01-31T13:30:59.475Z,3.83
2023-01-31T13:33:36.521Z,3.80
2023-01-31T13:36:16.028Z,3.83
2023-01-31T13:38:44.619Z,3.97
2023-01-31T13:41:20.367Z,4.40
2023-01-31T13:43:47.417Z,4.43
2023-01-31T13:46:15.098Z,4.73
2023-01-31T13:48:48.085Z,4.30
2023-01-31T13:51:46.059Z,5.20
2023-01-31T13:54:24.161Z,4.60
2023-01-31T13:56:54.753Z,4.53
2023-01-31T13:59:23.448Z,4.70
2023-01-31T14:01:51.531Z,4.60
2023-01-31T14:04:18.653Z,5.67
2023-01-31T14:06:54.723Z,4.90
2023-01-31T14:09:29.285Z,6.13
2023-01-31T14:12:01.435Z,5.70
2023-01-31T14:14:37.671Z,6.00
2023-01-31T14:17:05.551Z,5.80
2023-01-31T14:19:52.975Z,6.50
2023-01-31T14:22:24.402Z,6.03
2023-01-31T14:24:56.460Z,6.73
2023-01-31T14:27:23.510Z,6.57
2023-01-31T14:30:10.897Z,6.50
2023-01-31T14:33:19.656Z,6.57
2023-01-31T14:35:49.815Z,6.30
2023-01-31T14:38:35.461Z,8.20
2023-01-31T14:41:02.502Z,7.40
2023-01-31T14:43:46.318Z,7.53
2023-01-31T14:46:13.448Z,7.57
2023-01-31T14:48:40.565Z,6.57
2023-01-31T14:51:10.493Z,6.73
2023-01-31T14:53:58.743Z,6.50
2023-01-31T14:56:28.910Z,6.60
2023-01-31T14:58:56.071Z,6.20
2023-01-31T15:01:34.018Z,6.37
2023-01-31T15:04:01.741Z,6.20
2023-01-31T15:06:29.715Z,5.90
2023-01-31T15:09:17.220Z,5.47
2023-01-31T15:11:47.816Z,5.90
2023-01-31T15:14:37.873Z,6.80
2023-01-31T15:17:08.867Z,6.93
2023-01-31T15:19:57.474Z,5.70
2023-01-31T15:22:25.619Z,5.90
2023-01-31T15:24:57.011Z,5.80
2023-01-31T15:27:25.146Z,5.40
2023-01-31T15:30:06.723Z,5.53
2023-01-31T15:32:40.733Z,6.40
2023-01-31T15:35:14.236Z,5.80
2023-01-31T15:37:41.284Z,6.03
2023-01-31T15:40:26.262Z,5.80
2023-01-31T15:42:53.317Z,6.37
2023-01-31T15:45:22.979Z,6.20
2023-01-31T15:48:09.239Z,6.37
2023-01-31T15:50:36.290Z,5.87
2023-01-31T15:53:08.096Z,7.30
2023-01-31T15:55:36.477Z,6.70
2023-01-31T15:58:06.812Z,7.77
2023-01-31T16:00:35.580Z,7.23
2023-01-31T16:03:03.262Z,6.90
2023-01-31T16:05:32.799Z,7.50
2023-01-31T16:08:02.008Z,7.47
2023-01-31T16:10:30.188Z,8.20
2023-01-31T16:12:58.306Z,6.93
2023-01-31T16:15:26.696Z,6.93
2023-01-31T16:18:00.402Z,6.77
2023-01-31T16:20:38.973Z,7.00
2023-01-31T16:23:06.639Z,6.30
2023-01-31T16:25:36.233Z,6.70
2023-01-31T16:28:07.605Z,7.67
2023-01-31T16:30:35.197Z,6.47
2023-01-31T16:33:02.699Z,7.50
2023-01-31T16:35:30.501Z,7.23
2023-01-31T16:38:06.904Z,7.83
2023-01-31T16:40:45.026Z,7.53
2023-01-31T16:43:20.298Z,7.67
2023-01-31T16:45:59.228Z,7.60
2023-01-31T16:48:31.891Z,7.60
2023-01-31T16:51:30.337Z,7.30
2023-01-31T16:54:16.285Z,7.67
2023-01-31T16:56:43.977Z,7.50
2023-01-31T16:59:39.366Z,7.20
2023-01-31T17:02:26.135Z,7.83
2023-01-31T17:04:55.242Z,7.80
2023-01-31T17:07:30.025Z,7.90
2023-01-31T17:09:58.714Z,8.43
2023-01-31T17:12:33.124Z,7.90
2023-01-31T17:15:03.079Z,7.70
2023-01-31T17:17:34.320Z,7.37
2023-01-31T17:20:01.463Z,7.13
2023-01-31T17:22:28.416Z,7.50
2023-01-31T17:24:55.562Z,7.63
2023-01-31T17:27:23.040Z,8.47
2023-01-31T17:29:50.223Z,8.60
2023-01-31T17:32:20.104Z,8.83
2023-01-31T17:34:48.824Z,9.40
2023-01-31T17:37:20.855Z,9.23
2023-01-31T17:39:50.673Z,8.97
2023-01-31T17:42:20.382Z,9.83
2023-01-31T17:44:47.533Z,9.87
2023-01-31T17:47:14.808Z,10.10
2023-01-31T17:49:41.890Z,8.90
2023-01-31T17:52:09.035Z,9.20
2023-01-31T17:54:36.152Z,9.07
2023-01-31T17:57:03.262Z,9.10
2023-01-31T17:59:30.343Z,9.60
2023-01-31T18:01:57.608Z,9.97
2023-01-31T18:04:24.801Z,17.07
2023-01-31T18:06:51.494Z,13.80
2023-01-31T18:09:20.185Z,11.17
2023-01-31T18:11:47.633Z,10.93
2023-01-31T18:14:15.564Z,12.67
2023-01-31T18:16:42.506Z,10.17
2023-01-31T18:19:11.423Z,10.67
2023-01-31T18:21:43.842Z,9.93
2023-01-31T18:24:14.178Z,11.00
2023-01-31T18:26:41.473Z,12.10
2023-01-31T18:29:08.748Z,11.13
2023-01-31T18:31:35.489Z,12.80
2023-01-31T18:34:02.651Z,11.37
2023-01-31T18:36:29.345Z,12.27
2023-01-31T18:38:56.026Z,13.03
2023-01-31T18:41:23.155Z,12.60
2023-01-31T18:43:50.262Z,11.93
2023-01-31T18:46:17.426Z,11.53
2023-01-31T18:48:44.868Z,13.63
2023-01-31T18:51:12.926Z,13.67
2023-01-31T18:53:41.189Z,13.50
2023-01-31T18:56:10.656Z,12.40
2023-01-31T18:58:38.789Z,12.40
2023-01-31T19:01:09.937Z,12.73
2023-01-31T19:03:44.285Z,12.93
2023-01-31T19:06:12.411Z,12.90
2023-01-31T19:08:39.888Z,12.73
2023-01-31T19:11:08.630Z,13.00
2023-01-31T19:13:35.761Z,13.03
2023-01-31T19:16:07.077Z,12.40
2023-01-31T19:18:34.529Z,11.67
2023-01-31T19:21:01.322Z,10.67
2023-01-31T19:23:28.585Z,10.30
2023-01-31T19:25:55.942Z,9.70
2023-01-31T19:28:24.673Z,9.80
2023-01-31T19:30:52.309Z,8.33
2023-01-31T19:33:19.811Z,8.93
2023-01-31T19:35:47.289Z,6.97
2023-01-31T19:38:14.425Z,6.73
2023-01-31T19:40:42.503Z,6.13
2023-01-31T19:43:09.705Z,5.70
2023-01-31T19:45:36.842Z,5.90
2023-01-31T19:48:04.058Z,5.53
2023-01-31T19:50:31.164Z,5.17
2023-01-31T19:52:58.314Z,5.20
2023-01-31T19:55:25.390Z,4.87
2023-01-31T19:57:52.452Z,4.10
2023-01-31T20:00:19.400Z,3.97
2023-01-31T20:02:46.476Z,4.03
2023-01-31T20:05:13.707Z,4.33
2023-01-31T20:07:42.563Z,4.00
2023-01-31T20:10:11.757Z,4.60
2023-01-31T20:12:39.358Z,4.30
2023-01-31T20:15:06.970Z,4.63
2023-01-31T20:17:34.722Z,5.10
2023-01-31T20:20:01.483Z,5.73
2023-01-31T20:22:29.316Z,6.17
2023-01-31T20:24:57.060Z,6.67
2023-01-31T20:27:25.392Z,7.90
2023-01-31T20:29:52.525Z,7.70
2023-01-31T20:32:19.720Z,4.83
2023-01-31T20:34:46.460Z,2.80
2023-01-31T20:37:13.654Z,2.90
2023-01-31T20:39:40.887Z,3.57
2023-01-31T20:42:08.053Z,3.63
2023-01-31T20:44:35.217Z,3.10
2023-01-31T20:47:02.313Z,3.30
2023-01-31T20:49:29.050Z,3.87
2023-01-31T20:51:55.758Z,3.20
2023-01-31T20:54:22.899Z,4.00
2023-01-31T20:56:51.813Z,3.60
2023-01-31T20:59:19.474Z,3.80
2023-01-31T21:01:46.788Z,3.63
2023-01-31T21:04:14.882Z,4.47
2023-01-31T21:06:42.209Z,4.27
2023-01-31T21:09:09.575Z,5.17
2023-01-31T21:11:36.973Z,5.23
2023-01-31T21:14:03.825Z,7.57
2023-01-31T21:16:31.043Z,7.20
2023-01-31T21:18:58.553Z,7.33
2023-01-31T21:21:25.756Z,8.33
2023-01-31T21:23:54.011Z,8.47
2023-01-31T21:26:21.974Z,9.60
2023-01-31T21:28:49.512Z,9.50
2023-01-31T21:31:18.093Z,9.23
2023-01-31T21:33:45.307Z,10.70
2023-01-31T21:36:13.702Z,10.40
2023-01-31T21:38:41.175Z,11.53
2023-01-31T21:41:27.496Z,11.53
2023-01-31T21:43:54.683Z,12.57
2023-01-31T21:46:21.843Z,13.17
2023-01-31T21:48:49.801Z,13.53
2023-01-31T21:51:17.779Z,13.60
2023-01-31T21:53:45.248Z,13.47
2023-01-31T21:56:16.359Z,14.03
2023-01-31T21:58:44.444Z,13.27
2023-01-31T22:01:18.001Z,13.20
2023-01-31T22:03:48.139Z,13.40
2023-01-31T22:06:16.068Z,13.40
2023-01-31T22:08:43.537Z,15.23
2023-01-31T22:11:14.771Z,14.83
2023-01-31T22:13:45.328Z,14.73
2023-01-31T22:16:13.076Z,13.87
2023-01-31T22:18:42.433Z,13.23
2023-01-31T22:21:09.512Z,13.73
2023-01-31T22:23:37.212Z,15.00
2023-01-31T22:26:11.865Z,14.60
2023-01-31T22:28:39.380Z,13.03
2023-01-31T22:31:08.794Z,15.13
2023-01-31T22:33:37.306Z,13.90
2023-01-31T22:36:04.622Z,14.33
2023-01-31T22:38:31.819Z,14.50
2023-01-31T22:40:59.580Z,13.13
2023-01-31T22:43:27.143Z,14.10
2023-01-31T22:45:55.454Z,14.67
2023-01-31T22:48:23.944Z,13.90
2023-01-31T22:50:58.036Z,13.73
2023-01-31T22:53:30.855Z,13.83
2023-01-31T22:56:01.933Z,13.97
2023-01-31T22:58:29.119Z,13.97
2023-01-31T23:00:56.228Z,14.23
2023-01-31T23:03:23.710Z,14.07
2023-01-31T23:05:50.879Z,12.20
2023-01-31T23:08:18.333Z,13.90
2023-01-31T23:10:45.292Z,12.80
2023-01-31T23:13:12.419Z,11.90
2023-01-31T23:15:40.027Z,12.30
2023-01-31T23:18:07.263Z,10.87
2023-01-31T23:20:34.771Z,11.73
2023-01-31T23:23:01.496Z,11.10
2023-01-31T23:25:32.285Z,10.83
2023-01-31T23:28:00.585Z,9.67
2023-01-31T23:30:27.691Z,9.40
2023-01-31T23:32:54.392Z,9.80
2023-01-31T23:35:21.494Z,10.13
2023-01-31T23:37:48.471Z,9.43
2023-01-31T23:40:15.627Z,9.73
2023-01-31T23:42:42.724Z,8.53
2023-01-31T23:45:09.935Z,8.60
2023-01-31T23:47:37.251Z,8.83
2023-01-31T23:50:04.423Z,8.50
2023-01-31T23:52:31.058Z,7.93
2023-01-31T23:54:57.770Z,7.80
2023-01-31T23:57:24.874Z,7.63
2023-01-31T23:59:51.600Z,8.10
